Iver Bright — ZDKU4 — position and weather

sailwx.info

Track history (hours):
 
Tides and Currents Weather Stations Pressure Air Temp Water Temp Dewpoint Dewpoint Depression Visibility Wind Speed Wind Dir Waves Ship Positions

Iver Bright

Last reported at 2016-Dec-04 08:08 UTC. Time now 2016-Dec-07 20:26 UTC.
Position N 36°35' E 014°01'.

Length 111 m; draft 7.2 m.

Type: Tanker. MMSI: 236111811.

Date/timePositionNaut miles runAvg speedWind from/ knotsBaromVisibWave heightAir tempDewpointWater temp
2016-Dec-04 08:08N 36°35' E 014°01'711.2
2016-Dec-04 07:33N 36°33' E 014°09'1111.3
2016-Dec-04 06:33N 36°30' E 014°22'1111.4
2016-Dec-04 05:33N 36°26' E 014°36'1311.3
2016-Dec-04 04:23N 36°28' E 014°52'  
2016-Nov-24 14:33N 36°27' E 014°32'1110.7
2016-Nov-24 13:33N 36°30' E 014°20'1010.5
2016-Nov-24 12:33N 36°33' E 014°08'1010.4
2016-Nov-24 11:33N 36°37' E 013°55'1010.4
2016-Nov-24 10:33N 36°40' E 013°43'  
Track history (hours):
 
Tides and Currents Weather Stations Pressure Air Temp Water Temp Dewpoint Dewpoint Depression Visibility Wind Speed Wind Dir Waves Ship Positions

Iver Bright

Last reported at 2016-Dec-04 08:08 UTC. Time now 2016-Dec-07 20:26 UTC.
Position N 36°35' E 014°01'.

Length 111 m; draft 7.2 m.

Type: Tanker. MMSI: 236111811.

Date/timePositionNaut miles runAvg speedWind from/ knotsBaromVisibWave heightAir tempDewpointWater temp
2016-Dec-04 08:08N 36°35' E 014°01'711.2
2016-Dec-04 07:33N 36°33' E 014°09'1111.3
2016-Dec-04 06:33N 36°30' E 014°22'1111.4
2016-Dec-04 05:33N 36°26' E 014°36'1311.3
2016-Dec-04 04:23N 36°28' E 014°52'  
2016-Nov-24 14:33N 36°27' E 014°32'1110.7
2016-Nov-24 13:33N 36°30' E 014°20'1010.5
2016-Nov-24 12:33N 36°33' E 014°08'1010.4
2016-Nov-24 11:33N 36°37' E 013°55'1010.4
2016-Nov-24 10:33N 36°40' E 013°43'  

Dump ship's entire track history